Wrightstown, Ohio
Current Conditions -  °F | °C
As of 1:35 PM on Friday 31 Oct 2014 (Local Time) from KUNI Reporting Station
Light Rain Light Rain  
Wind Chill: 43°   Ceiling: 2400
Heat Index: 46°   Visibility: 10mi
Dew Point: 40°   Wind: 6mph
Humidity: 80%   Direction: 250°WSW
Pressure: 29.9"   Gusts: NA
Location:  39.5152°N, 82.0676°W
Report Text: KUNI 311735Z AUTO 25005KT 10SM -RA SCT015 BKN024 OVC029 08/05 A2990 RMK AO2 T00780046
Loading
Personal Weather Stations






























Interactive Weather Map
Tropical Storm Tracking
New forecast layout! Learn more

10-Day Weather Forecast

Advertisements
Track Severe Weather on mobile